sensor_id;sensor_type;location;lat;lon;timestamp;P1;durP1;ratioP1;P2;durP2;ratioP2
69573;SDS011;62840;52.366;5.980;2023-05-10T00:00:08;9.10;;;3.80;;
69573;SDS011;62840;52.366;5.980;2023-05-10T00:02:35;7.07;;;3.80;;
69573;SDS011;62840;52.366;5.980;2023-05-10T00:05:01;7.47;;;3.80;;
69573;SDS011;62840;52.366;5.980;2023-05-10T00:07:27;14.10;;;5.07;;
69573;SDS011;62840;52.366;5.980;2023-05-10T00:09:52;6.63;;;3.30;;
69573;SDS011;62840;52.366;5.980;2023-05-10T00:12:18;6.85;;;3.25;;
69573;SDS011;62840;52.366;5.980;2023-05-10T00:14:44;7.90;;;3.55;;
69573;SDS011;62840;52.366;5.980;2023-05-10T00:17:12;6.63;;;3.60;;
69573;SDS011;62840;52.366;5.980;2023-05-10T00:19:38;6.85;;;3.67;;
69573;SDS011;62840;52.366;5.980;2023-05-10T00:22:03;9.48;;;4.13;;
69573;SDS011;62840;52.366;5.980;2023-05-10T00:24:29;7.43;;;3.70;;
69573;SDS011;62840;52.366;5.980;2023-05-10T00:26:55;7.50;;;3.55;;
69573;SDS011;62840;52.366;5.980;2023-05-10T00:29:21;7.73;;;3.80;;
69573;SDS011;62840;52.366;5.980;2023-05-10T00:31:46;8.38;;;3.72;;
69573;SDS011;62840;52.366;5.980;2023-05-10T00:34:15;8.90;;;3.50;;
69573;SDS011;62840;52.366;5.980;2023-05-10T00:36:41;8.82;;;3.75;;
69573;SDS011;62840;52.366;5.980;2023-05-10T00:39:06;14.55;;;4.25;;
69573;SDS011;62840;52.366;5.980;2023-05-10T00:41:32;10.43;;;4.00;;
69573;SDS011;62840;52.366;5.980;2023-05-10T00:43:58;8.40;;;3.95;;
69573;SDS011;62840;52.366;5.980;2023-05-10T00:46:24;9.33;;;4.00;;
69573;SDS011;62840;52.366;5.980;2023-05-10T00:48:51;8.07;;;3.90;;
69573;SDS011;62840;52.366;5.980;2023-05-10T00:51:20;8.32;;;3.83;;
69573;SDS011;62840;52.366;5.980;2023-05-10T00:53:47;9.60;;;3.75;;
69573;SDS011;62840;52.366;5.980;2023-05-10T00:56:14;8.35;;;3.90;;
69573;SDS011;62840;52.366;5.980;2023-05-10T00:58:40;9.63;;;3.97;;
69573;SDS011;62840;52.366;5.980;2023-05-10T01:01:07;9.88;;;4.20;;
69573;SDS011;62840;52.366;5.980;2023-05-10T01:03:34;9.10;;;4.30;;
69573;SDS011;62840;52.366;5.980;2023-05-10T01:06:01;9.35;;;4.47;;
69573;SDS011;62840;52.366;5.980;2023-05-10T01:08:30;10.32;;;4.65;;
69573;SDS011;62840;52.366;5.980;2023-05-10T01:10:56;10.07;;;4.43;;
69573;SDS011;62840;52.366;5.980;2023-05-10T01:13:30;8.60;;;4.50;;
69573;SDS011;62840;52.366;5.980;2023-05-10T01:16:00;9.73;;;4.90;;
69573;SDS011;62840;52.366;5.980;2023-05-10T01:18:26;12.13;;;5.10;;
69573;SDS011;62840;52.366;5.980;2023-05-10T01:20:57;11.48;;;4.85;;
69573;SDS011;62840;52.366;5.980;2023-05-10T01:23:43;9.23;;;4.60;;
69573;SDS011;62840;52.366;5.980;2023-05-10T01:26:59;9.95;;;4.63;;
69573;SDS011;62840;52.366;5.980;2023-05-10T01:33:04;10.10;;;4.63;;
69573;SDS011;62840;52.366;5.980;2023-05-10T01:35:41;10.95;;;5.55;;
69573;SDS011;62840;52.366;5.980;2023-05-10T01:38:17;11.17;;;4.53;;
69573;SDS011;62840;52.366;5.980;2023-05-10T01:40:56;10.40;;;4.65;;
69573;SDS011;62840;52.366;5.980;2023-05-10T01:43:39;13.30;;;5.38;;
69573;SDS011;62840;52.366;5.980;2023-05-10T01:46:19;10.55;;;4.95;;
69573;SDS011;62840;52.366;5.980;2023-05-10T01:48:55;11.50;;;5.32;;
69573;SDS011;62840;52.366;5.980;2023-05-10T01:51:27;10.33;;;4.67;;
69573;SDS011;62840;52.366;5.980;2023-05-10T01:54:04;14.65;;;6.05;;
69573;SDS011;62840;52.366;5.980;2023-05-10T01:56:32;14.82;;;5.55;;
69573;SDS011;62840;52.366;5.980;2023-05-10T01:59:01;15.88;;;7.00;;
69573;SDS011;62840;52.366;5.980;2023-05-10T02:01:36;14.73;;;5.93;;
69573;SDS011;62840;52.366;5.980;2023-05-10T02:04:06;11.43;;;4.90;;
69573;SDS011;62840;52.366;5.980;2023-05-10T02:06:36;11.25;;;5.28;;
69573;SDS011;62840;52.366;5.980;2023-05-10T02:09:04;10.93;;;5.13;;
69573;SDS011;62840;52.366;5.980;2023-05-10T02:11:32;13.85;;;5.90;;
69573;SDS011;62840;52.366;5.980;2023-05-10T02:13:58;13.25;;;5.90;;
69573;SDS011;62840;52.366;5.980;2023-05-10T02:16:26;13.27;;;5.97;;
69573;SDS011;62840;52.366;5.980;2023-05-10T02:18:53;14.38;;;5.88;;
69573;SDS011;62840;52.366;5.980;2023-05-10T02:21:26;13.93;;;6.38;;
69573;SDS011;62840;52.366;5.980;2023-05-10T02:23:55;14.90;;;6.10;;
69573;SDS011;62840;52.366;5.980;2023-05-10T02:26:24;18.88;;;6.32;;
69573;SDS011;62840;52.366;5.980;2023-05-10T02:28:52;17.23;;;6.90;;
69573;SDS011;62840;52.366;5.980;2023-05-10T02:31:21;12.90;;;6.07;;
69573;SDS011;62840;52.366;5.980;2023-05-10T02:33:48;17.70;;;7.72;;
69573;SDS011;62840;52.366;5.980;2023-05-10T02:36:16;17.10;;;6.43;;
69573;SDS011;62840;52.366;5.980;2023-05-10T02:38:47;17.80;;;7.22;;
69573;SDS011;62840;52.366;5.980;2023-05-10T02:41:16;16.47;;;7.07;;
69573;SDS011;62840;52.366;5.980;2023-05-10T02:43:45;20.65;;;8.43;;
69573;SDS011;62840;52.366;5.980;2023-05-10T02:46:14;17.95;;;7.60;;
69573;SDS011;62840;52.366;5.980;2023-05-10T02:48:40;24.08;;;8.25;;
69573;SDS011;62840;52.366;5.980;2023-05-10T02:51:07;20.58;;;8.10;;
69573;SDS011;62840;52.366;5.980;2023-05-10T02:53:34;18.33;;;8.40;;
69573;SDS011;62840;52.366;5.980;2023-05-10T02:56:12;23.00;;;10.02;;
69573;SDS011;62840;52.366;5.980;2023-05-10T02:58:45;19.80;;;8.27;;
69573;SDS011;62840;52.366;5.980;2023-05-10T03:01:10;19.13;;;8.40;;
69573;SDS011;62840;52.366;5.980;2023-05-10T03:03:36;22.27;;;9.25;;
69573;SDS011;62840;52.366;5.980;2023-05-10T03:06:02;22.90;;;9.00;;
69573;SDS011;62840;52.366;5.980;2023-05-10T03:08:28;23.35;;;9.30;;
69573;SDS011;62840;52.366;5.980;2023-05-10T03:10:55;22.10;;;9.15;;
69573;SDS011;62840;52.366;5.980;2023-05-10T03:13:47;20.95;;;9.13;;
69573;SDS011;62840;52.366;5.980;2023-05-10T03:16:30;22.50;;;8.88;;
69573;SDS011;62840;52.366;5.980;2023-05-10T03:19:06;22.02;;;9.48;;
69573;SDS011;62840;52.366;5.980;2023-05-10T03:21:41;24.20;;;10.05;;
69573;SDS011;62840;52.366;5.980;2023-05-10T03:24:16;23.63;;;10.18;;
69573;SDS011;62840;52.366;5.980;2023-05-10T03:26:49;24.63;;;10.40;;
69573;SDS011;62840;52.366;5.980;2023-05-10T03:29:20;26.90;;;10.80;;
69573;SDS011;62840;52.366;5.980;2023-05-10T03:31:50;24.98;;;10.45;;
69573;SDS011;62840;52.366;5.980;2023-05-10T03:34:16;24.90;;;10.23;;
69573;SDS011;62840;52.366;5.980;2023-05-10T03:36:48;27.70;;;10.27;;
69573;SDS011;62840;52.366;5.980;2023-05-10T03:39:13;29.58;;;10.82;;
69573;SDS011;62840;52.366;5.980;2023-05-10T03:41:39;33.07;;;12.60;;
69573;SDS011;62840;52.366;5.980;2023-05-10T03:44:07;30.63;;;10.95;;
69573;SDS011;62840;52.366;5.980;2023-05-10T03:46:33;27.40;;;10.38;;
69573;SDS011;62840;52.366;5.980;2023-05-10T03:48:59;28.93;;;11.27;;
69573;SDS011;62840;52.366;5.980;2023-05-10T03:51:25;33.45;;;11.93;;
69573;SDS011;62840;52.366;5.980;2023-05-10T03:53:50;31.23;;;12.20;;
69573;SDS011;62840;52.366;5.980;2023-05-10T03:56:16;28.52;;;10.88;;
69573;SDS011;62840;52.366;5.980;2023-05-10T03:58:42;32.23;;;12.73;;
69573;SDS011;62840;52.366;5.980;2023-05-10T04:01:10;34.05;;;11.63;;
69573;SDS011;62840;52.366;5.980;2023-05-10T04:03:36;32.28;;;13.05;;
69573;SDS011;62840;52.366;5.980;2023-05-10T04:06:02;31.97;;;12.00;;
69573;SDS011;62840;52.366;5.980;2023-05-10T04:08:28;33.95;;;13.27;;
69573;SDS011;62840;52.366;5.980;2023-05-10T04:10:54;33.90;;;13.30;;
69573;SDS011;62840;52.366;5.980;2023-05-10T04:13:19;38.78;;;13.88;;
69573;SDS011;62840;52.366;5.980;2023-05-10T04:15:45;40.10;;;14.73;;
69573;SDS011;62840;52.366;5.980;2023-05-10T04:18:13;37.40;;;14.07;;
69573;SDS011;62840;52.366;5.980;2023-05-10T04:20:39;36.35;;;14.68;;
69573;SDS011;62840;52.366;5.980;2023-05-10T04:23:05;36.33;;;14.50;;
69573;SDS011;62840;52.366;5.980;2023-05-10T04:25:33;33.63;;;12.55;;
69573;SDS011;62840;52.366;5.980;2023-05-10T04:27:59;36.67;;;14.18;;
69573;SDS011;62840;52.366;5.980;2023-05-10T04:30:25;37.25;;;13.50;;
69573;SDS011;62840;52.366;5.980;2023-05-10T04:32:50;40.22;;;14.40;;
69573;SDS011;62840;52.366;5.980;2023-05-10T04:35:19;34.63;;;13.68;;
69573;SDS011;62840;52.366;5.980;2023-05-10T04:37:44;37.42;;;14.45;;
69573;SDS011;62840;52.366;5.980;2023-05-10T04:40:10;39.70;;;14.40;;
69573;SDS011;62840;52.366;5.980;2023-05-10T04:42:39;36.67;;;14.00;;
69573;SDS011;62840;52.366;5.980;2023-05-10T04:45:06;31.95;;;13.48;;
69573;SDS011;62840;52.366;5.980;2023-05-10T04:47:32;36.53;;;13.73;;
69573;SDS011;62840;52.366;5.980;2023-05-10T04:49:58;32.50;;;13.37;;
69573;SDS011;62840;52.366;5.980;2023-05-10T04:52:27;34.65;;;13.68;;
69573;SDS011;62840;52.366;5.980;2023-05-10T04:54:53;36.90;;;14.27;;
69573;SDS011;62840;52.366;5.980;2023-05-10T04:57:18;32.38;;;13.18;;
69573;SDS011;62840;52.366;5.980;2023-05-10T04:59:44;30.85;;;12.77;;
69573;SDS011;62840;52.366;5.980;2023-05-10T05:02:10;35.33;;;13.77;;
69573;SDS011;62840;52.366;5.980;2023-05-10T05:04:36;29.13;;;13.10;;
69573;SDS011;62840;52.366;5.980;2023-05-10T05:07:01;31.92;;;12.23;;
69573;SDS011;62840;52.366;5.980;2023-05-10T05:09:30;34.10;;;13.18;;
69573;SDS011;62840;52.366;5.980;2023-05-10T05:11:55;31.95;;;12.57;;
69573;SDS011;62840;52.366;5.980;2023-05-10T05:14:21;31.30;;;12.97;;
69573;SDS011;62840;52.366;5.980;2023-05-10T05:16:47;31.67;;;12.63;;
69573;SDS011;62840;52.366;5.980;2023-05-10T05:19:13;30.90;;;12.87;;
69573;SDS011;62840;52.366;5.980;2023-05-10T05:21:38;31.88;;;12.27;;
69573;SDS011;62840;52.366;5.980;2023-05-10T05:24:05;28.17;;;13.35;;
69573;SDS011;62840;52.366;5.980;2023-05-10T05:26:34;32.28;;;12.80;;
69573;SDS011;62840;52.366;5.980;2023-05-10T05:29:00;27.05;;;11.77;;
69573;SDS011;62840;52.366;5.980;2023-05-10T05:31:25;28.95;;;11.98;;
69573;SDS011;62840;52.366;5.980;2023-05-10T05:33:51;27.90;;;11.80;;
69573;SDS011;62840;52.366;5.980;2023-05-10T05:36:17;31.75;;;11.98;;
69573;SDS011;62840;52.366;5.980;2023-05-10T05:38:42;26.93;;;11.43;;
69573;SDS011;62840;52.366;5.980;2023-05-10T05:41:08;27.65;;;12.07;;
69573;SDS011;62840;52.366;5.980;2023-05-10T05:43:36;28.20;;;11.77;;
69573;SDS011;62840;52.366;5.980;2023-05-10T05:46:02;28.17;;;10.93;;
69573;SDS011;62840;52.366;5.980;2023-05-10T05:48:29;26.33;;;10.55;;
69573;SDS011;62840;52.366;5.980;2023-05-10T05:50:55;28.63;;;11.73;;
69573;SDS011;62840;52.366;5.980;2023-05-10T05:53:21;26.27;;;10.85;;
69573;SDS011;62840;52.366;5.980;2023-05-10T05:55:53;27.67;;;11.35;;
69573;SDS011;62840;52.366;5.980;2023-05-10T05:58:19;25.23;;;10.27;;
69573;SDS011;62840;52.366;5.980;2023-05-10T06:00:48;23.37;;;10.20;;
69573;SDS011;62840;52.366;5.980;2023-05-10T06:03:14;27.55;;;10.65;;
69573;SDS011;62840;52.366;5.980;2023-05-10T06:05:40;27.05;;;10.25;;
69573;SDS011;62840;52.366;5.980;2023-05-10T06:08:06;27.63;;;10.80;;
69573;SDS011;62840;52.366;5.980;2023-05-10T06:10:32;24.60;;;10.48;;
69573;SDS011;62840;52.366;5.980;2023-05-10T06:12:57;26.70;;;11.13;;
69573;SDS011;62840;52.366;5.980;2023-05-10T06:15:23;23.75;;;10.18;;
69573;SDS011;62840;52.366;5.980;2023-05-10T06:17:51;24.87;;;10.70;;
69573;SDS011;62840;52.366;5.980;2023-05-10T06:20:17;27.83;;;10.38;;
69573;SDS011;62840;52.366;5.980;2023-05-10T06:22:43;26.95;;;11.25;;
69573;SDS011;62840;52.366;5.980;2023-05-10T06:25:09;24.77;;;9.75;;
69573;SDS011;62840;52.366;5.980;2023-05-10T06:27:35;24.52;;;10.25;;
69573;SDS011;62840;52.366;5.980;2023-05-10T06:30:01;26.58;;;10.48;;
69573;SDS011;62840;52.366;5.980;2023-05-10T06:32:27;23.45;;;10.32;;
69573;SDS011;62840;52.366;5.980;2023-05-10T06:34:55;24.63;;;10.07;;
69573;SDS011;62840;52.366;5.980;2023-05-10T06:37:21;28.55;;;11.50;;
69573;SDS011;62840;52.366;5.980;2023-05-10T06:39:47;27.63;;;10.37;;
69573;SDS011;62840;52.366;5.980;2023-05-10T06:42:12;27.27;;;11.48;;
69573;SDS011;62840;52.366;5.980;2023-05-10T06:44:38;28.37;;;11.50;;
69573;SDS011;62840;52.366;5.980;2023-05-10T06:47:04;32.53;;;11.63;;
69573;SDS011;62840;52.366;5.980;2023-05-10T06:49:30;30.17;;;10.93;;
69573;SDS011;62840;52.366;5.980;2023-05-10T06:51:58;26.15;;;10.75;;
69573;SDS011;62840;52.366;5.980;2023-05-10T06:54:24;24.98;;;10.93;;
69573;SDS011;62840;52.366;5.980;2023-05-10T06:56:49;23.27;;;9.17;;
69573;SDS011;62840;52.366;5.980;2023-05-10T06:59:15;25.75;;;9.25;;
69573;SDS011;62840;52.366;5.980;2023-05-10T07:01:41;23.20;;;9.13;;
69573;SDS011;62840;52.366;5.980;2023-05-10T07:04:07;24.65;;;8.88;;
69573;SDS011;62840;52.366;5.980;2023-05-10T07:06:33;20.33;;;8.20;;
69573;SDS011;62840;52.366;5.980;2023-05-10T07:09:01;21.63;;;8.15;;
69573;SDS011;62840;52.366;5.980;2023-05-10T07:11:27;20.17;;;7.45;;
69573;SDS011;62840;52.366;5.980;2023-05-10T07:13:53;19.65;;;7.18;;
69573;SDS011;62840;52.366;5.980;2023-05-10T07:16:19;18.27;;;6.43;;
69573;SDS011;62840;52.366;5.980;2023-05-10T07:18:44;18.13;;;6.78;;
69573;SDS011;62840;52.366;5.980;2023-05-10T07:21:10;16.07;;;6.40;;
69573;SDS011;62840;52.366;5.980;2023-05-10T07:23:36;16.60;;;6.55;;
69573;SDS011;62840;52.366;5.980;2023-05-10T07:26:04;18.10;;;5.87;;
69573;SDS011;62840;52.366;5.980;2023-05-10T07:28:30;15.45;;;6.13;;
69573;SDS011;62840;52.366;5.980;2023-05-10T07:30:56;12.07;;;5.57;;
69573;SDS011;62840;52.366;5.980;2023-05-10T07:33:22;17.05;;;5.80;;
69573;SDS011;62840;52.366;5.980;2023-05-10T07:35:47;15.98;;;5.95;;
69573;SDS011;62840;52.366;5.980;2023-05-10T07:38:13;12.73;;;5.13;;
69573;SDS011;62840;52.366;5.980;2023-05-10T07:40:39;12.35;;;5.53;;
69573;SDS011;62840;52.366;5.980;2023-05-10T07:43:07;9.77;;;4.83;;
69573;SDS011;62840;52.366;5.980;2023-05-10T07:45:33;10.60;;;4.75;;
69573;SDS011;62840;52.366;5.980;2023-05-10T07:47:59;13.25;;;4.93;;
69573;SDS011;62840;52.366;5.980;2023-05-10T07:50:25;13.80;;;4.70;;
69573;SDS011;62840;52.366;5.980;2023-05-10T07:52:50;14.25;;;4.57;;
69573;SDS011;62840;52.366;5.980;2023-05-10T07:55:17;10.60;;;4.30;;
69573;SDS011;62840;52.366;5.980;2023-05-10T07:57:44;8.57;;;3.70;;
69573;SDS011;62840;52.366;5.980;2023-05-10T08:00:14;10.23;;;3.88;;
69573;SDS011;62840;52.366;5.980;2023-05-10T08:02:43;13.90;;;3.93;;
69573;SDS011;62840;52.366;5.980;2023-05-10T08:05:09;9.07;;;3.95;;
69573;SDS011;62840;52.366;5.980;2023-05-10T08:07:35;9.90;;;4.03;;
69573;SDS011;62840;52.366;5.980;2023-05-10T08:10:01;11.20;;;3.80;;
69573;SDS011;62840;52.366;5.980;2023-05-10T08:12:27;9.45;;;3.60;;
69573;SDS011;62840;52.366;5.980;2023-05-10T08:14:53;9.67;;;3.50;;
69573;SDS011;62840;52.366;5.980;2023-05-10T08:17:21;9.55;;;3.83;;
69573;SDS011;62840;52.366;5.980;2023-05-10T08:19:47;9.45;;;3.33;;
69573;SDS011;62840;52.366;5.980;2023-05-10T08:22:12;7.20;;;3.20;;
69573;SDS011;62840;52.366;5.980;2023-05-10T08:24:38;9.73;;;4.00;;
69573;SDS011;62840;52.366;5.980;2023-05-10T08:27:04;13.90;;;3.53;;
69573;SDS011;62840;52.366;5.980;2023-05-10T08:29:30;17.02;;;3.67;;
69573;SDS011;62840;52.366;5.980;2023-05-10T08:31:56;8.50;;;3.42;;
69573;SDS011;62840;52.366;5.980;2023-05-10T08:34:24;8.18;;;3.45;;
69573;SDS011;62840;52.366;5.980;2023-05-10T08:36:50;7.55;;;3.20;;
69573;SDS011;62840;52.366;5.980;2023-05-10T08:39:16;11.37;;;3.27;;
69573;SDS011;62840;52.366;5.980;2023-05-10T08:41:41;8.25;;;3.10;;
69573;SDS011;62840;52.366;5.980;2023-05-10T08:44:10;9.27;;;3.08;;
69573;SDS011;62840;52.366;5.980;2023-05-10T08:46:36;9.45;;;3.30;;
69573;SDS011;62840;52.366;5.980;2023-05-10T08:49:06;9.25;;;3.03;;
69573;SDS011;62840;52.366;5.980;2023-05-10T08:51:36;8.65;;;3.40;;
69573;SDS011;62840;52.366;5.980;2023-05-10T08:54:09;9.25;;;3.35;;
69573;SDS011;62840;52.366;5.980;2023-05-10T08:56:35;7.75;;;3.10;;
69573;SDS011;62840;52.366;5.980;2023-05-10T08:59:02;11.02;;;3.42;;
69573;SDS011;62840;52.366;5.980;2023-05-10T09:01:27;7.63;;;3.22;;
69573;SDS011;62840;52.366;5.980;2023-05-10T09:03:56;8.18;;;2.70;;
69573;SDS011;62840;52.366;5.980;2023-05-10T09:06:23;9.20;;;4.35;;
69573;SDS011;62840;52.366;5.980;2023-05-10T09:08:52;8.57;;;3.40;;
69573;SDS011;62840;52.366;5.980;2023-05-10T09:11:18;7.65;;;3.03;;
69573;SDS011;62840;52.366;5.980;2023-05-10T09:13:47;6.63;;;3.15;;
69573;SDS011;62840;52.366;5.980;2023-05-10T09:16:15;7.75;;;3.38;;
69573;SDS011;62840;52.366;5.980;2023-05-10T09:18:41;8.47;;;3.47;;
69573;SDS011;62840;52.366;5.980;2023-05-10T09:21:07;6.57;;;2.90;;
69573;SDS011;62840;52.366;5.980;2023-05-10T09:23:34;7.32;;;3.22;;
69573;SDS011;62840;52.366;5.980;2023-05-10T09:26:05;6.83;;;3.10;;
69573;SDS011;62840;52.366;5.980;2023-05-10T09:28:32;7.85;;;3.13;;
69573;SDS011;62840;52.366;5.980;2023-05-10T09:30:58;6.53;;;3.13;;
69573;SDS011;62840;52.366;5.980;2023-05-10T09:33:24;6.67;;;3.30;;
69573;SDS011;62840;52.366;5.980;2023-05-10T09:35:51;10.68;;;3.88;;
69573;SDS011;62840;52.366;5.980;2023-05-10T09:38:17;6.60;;;3.00;;
69573;SDS011;62840;52.366;5.980;2023-05-10T09:40:43;6.45;;;3.30;;
69573;SDS011;62840;52.366;5.980;2023-05-10T09:43:20;6.40;;;2.60;;
69573;SDS011;62840;52.366;5.980;2023-05-10T09:45:46;7.57;;;2.60;;
69573;SDS011;62840;52.366;5.980;2023-05-10T09:48:14;6.88;;;2.80;;
69573;SDS011;62840;52.366;5.980;2023-05-10T09:50:39;9.67;;;2.80;;
69573;SDS011;62840;52.366;5.980;2023-05-10T09:53:06;9.15;;;3.20;;
69573;SDS011;62840;52.366;5.980;2023-05-10T09:55:38;7.07;;;3.17;;
69573;SDS011;62840;52.366;5.980;2023-05-10T09:58:06;7.63;;;2.80;;
69573;SDS011;62840;52.366;5.980;2023-05-10T10:00:37;6.47;;;2.80;;
69573;SDS011;62840;52.366;5.980;2023-05-10T10:03:05;7.88;;;2.80;;
69573;SDS011;62840;52.366;5.980;2023-05-10T10:05:31;6.82;;;2.60;;
69573;SDS011;62840;52.366;5.980;2023-05-10T10:08:00;6.78;;;2.80;;
69573;SDS011;62840;52.366;5.980;2023-05-10T10:10:29;5.80;;;2.53;;
69573;SDS011;62840;52.366;5.980;2023-05-10T10:12:58;6.18;;;2.72;;
69573;SDS011;62840;52.366;5.980;2023-05-10T10:15:24;6.47;;;2.50;;
69573;SDS011;62840;52.366;5.980;2023-05-10T10:17:53;6.10;;;2.95;;
69573;SDS011;62840;52.366;5.980;2023-05-10T10:20:20;7.30;;;2.65;;
69573;SDS011;62840;52.366;5.980;2023-05-10T10:22:47;6.22;;;2.45;;
69573;SDS011;62840;52.366;5.980;2023-05-10T10:25:14;5.45;;;2.35;;
69573;SDS011;62840;52.366;5.980;2023-05-10T10:27:44;6.10;;;2.40;;
69573;SDS011;62840;52.366;5.980;2023-05-10T10:30:26;5.47;;;2.53;;
69573;SDS011;62840;52.366;5.980;2023-05-10T10:33:29;5.45;;;2.20;;
69573;SDS011;62840;52.366;5.980;2023-05-10T10:36:05;6.30;;;2.75;;
69573;SDS011;62840;52.366;5.980;2023-05-10T10:38:35;5.88;;;2.70;;
69573;SDS011;62840;52.366;5.980;2023-05-10T10:41:26;4.97;;;2.33;;
69573;SDS011;62840;52.366;5.980;2023-05-10T10:47:01;8.95;;;1.92;;
69573;SDS011;62840;52.366;5.980;2023-05-10T10:49:37;6.90;;;2.70;;
69573;SDS011;62840;52.366;5.980;2023-05-10T10:52:14;6.38;;;2.50;;
69573;SDS011;62840;52.366;5.980;2023-05-10T10:54:52;6.18;;;2.45;;
69573;SDS011;62840;52.366;5.980;2023-05-10T10:57:22;6.47;;;2.70;;
69573;SDS011;62840;52.366;5.980;2023-05-10T10:59:48;5.32;;;2.72;;
69573;SDS011;62840;52.366;5.980;2023-05-10T11:02:32;6.85;;;2.97;;
69573;SDS011;62840;52.366;5.980;2023-05-10T11:05:01;7.80;;;2.78;;
69573;SDS011;62840;52.366;5.980;2023-05-10T11:07:59;8.60;;;3.10;;
69573;SDS011;62840;52.366;5.980;2023-05-10T11:10:33;6.78;;;2.92;;
69573;SDS011;62840;52.366;5.980;2023-05-10T11:13:00;6.72;;;2.38;;
69573;SDS011;62840;52.366;5.980;2023-05-10T11:15:30;7.63;;;3.17;;
69573;SDS011;62840;52.366;5.980;2023-05-10T11:17:57;9.80;;;3.23;;
69573;SDS011;62840;52.366;5.980;2023-05-10T11:20:26;6.95;;;2.92;;
69573;SDS011;62840;52.366;5.980;2023-05-10T11:22:53;9.32;;;3.67;;
69573;SDS011;62840;52.366;5.980;2023-05-10T11:25:20;7.72;;;2.70;;
69573;SDS011;62840;52.366;5.980;2023-05-10T11:27:51;9.63;;;3.55;;
69573;SDS011;62840;52.366;5.980;2023-05-10T11:30:17;6.10;;;3.08;;
69573;SDS011;62840;52.366;5.980;2023-05-10T11:32:44;7.47;;;2.97;;
69573;SDS011;62840;52.366;5.980;2023-05-10T11:35:10;6.50;;;2.80;;
69573;SDS011;62840;52.366;5.980;2023-05-10T11:37:40;7.95;;;2.40;;
69573;SDS011;62840;52.366;5.980;2023-05-10T11:40:07;5.85;;;2.90;;
69573;SDS011;62840;52.366;5.980;2023-05-10T11:42:33;7.70;;;2.60;;
69573;SDS011;62840;52.366;5.980;2023-05-10T11:45:00;6.93;;;2.33;;
69573;SDS011;62840;52.366;5.980;2023-05-10T11:47:27;7.00;;;3.15;;
69573;SDS011;62840;52.366;5.980;2023-05-10T11:49:53;6.33;;;2.93;;
69573;SDS011;62840;52.366;5.980;2023-05-10T11:52:18;7.93;;;2.85;;
69573;SDS011;62840;52.366;5.980;2023-05-10T11:54:47;7.18;;;2.75;;
69573;SDS011;62840;52.366;5.980;2023-05-10T11:57:17;7.22;;;2.83;;
69573;SDS011;62840;52.366;5.980;2023-05-10T11:59:44;7.47;;;2.67;;
69573;SDS011;62840;52.366;5.980;2023-05-10T12:02:09;7.78;;;2.90;;
69573;SDS011;62840;52.366;5.980;2023-05-10T12:04:35;5.73;;;2.43;;
69573;SDS011;62840;52.366;5.980;2023-05-10T12:07:02;7.60;;;2.92;;
69573;SDS011;62840;52.366;5.980;2023-05-10T12:09:28;6.78;;;2.80;;
69573;SDS011;62840;52.366;5.980;2023-05-10T12:11:57;8.30;;;2.87;;
69573;SDS011;62840;52.366;5.980;2023-05-10T12:14:23;7.53;;;2.80;;
69573;SDS011;62840;52.366;5.980;2023-05-10T12:16:48;9.10;;;3.00;;
69573;SDS011;62840;52.366;5.980;2023-05-10T12:19:17;8.20;;;3.57;;
69573;SDS011;62840;52.366;5.980;2023-05-10T12:21:44;7.18;;;2.97;;
69573;SDS011;62840;52.366;5.980;2023-05-10T12:24:10;11.07;;;3.20;;
69573;SDS011;62840;52.366;5.980;2023-05-10T12:26:36;6.27;;;2.97;;
69573;SDS011;62840;52.366;5.980;2023-05-10T12:29:14;6.53;;;3.10;;
69573;SDS011;62840;52.366;5.980;2023-05-10T12:31:50;5.78;;;2.63;;
69573;SDS011;62840;52.366;5.980;2023-05-10T12:34:24;6.00;;;3.17;;
69573;SDS011;62840;52.366;5.980;2023-05-10T12:36:51;5.53;;;2.70;;
69573;SDS011;62840;52.366;5.980;2023-05-10T12:39:17;5.60;;;2.47;;
69573;SDS011;62840;52.366;5.980;2023-05-10T12:41:43;5.43;;;2.78;;
69573;SDS011;62840;52.366;5.980;2023-05-10T12:44:09;7.20;;;3.07;;
69573;SDS011;62840;52.366;5.980;2023-05-10T12:46:37;7.03;;;3.30;;
69573;SDS011;62840;52.366;5.980;2023-05-10T12:49:03;6.63;;;2.88;;
69573;SDS011;62840;52.366;5.980;2023-05-10T12:51:28;6.93;;;2.70;;
69573;SDS011;62840;52.366;5.980;2023-05-10T12:53:54;6.60;;;3.00;;
69573;SDS011;62840;52.366;5.980;2023-05-10T12:56:20;6.83;;;2.67;;
69573;SDS011;62840;52.366;5.980;2023-05-10T12:58:45;6.88;;;2.63;;
69573;SDS011;62840;52.366;5.980;2023-05-10T13:01:11;7.40;;;3.10;;
69573;SDS011;62840;52.366;5.980;2023-05-10T13:03:39;5.68;;;3.00;;
69573;SDS011;62840;52.366;5.980;2023-05-10T13:06:05;6.27;;;3.10;;
69573;SDS011;62840;52.366;5.980;2023-05-10T13:08:31;10.18;;;3.05;;
69573;SDS011;62840;52.366;5.980;2023-05-10T13:10:57;10.43;;;3.97;;
69573;SDS011;62840;52.366;5.980;2023-05-10T13:13:23;7.77;;;3.90;;
69573;SDS011;62840;52.366;5.980;2023-05-10T13:15:49;7.40;;;3.47;;
69573;SDS011;62840;52.366;5.980;2023-05-10T13:18:14;7.53;;;3.70;;
69573;SDS011;62840;52.366;5.980;2023-05-10T13:20:43;7.50;;;3.42;;
69573;SDS011;62840;52.366;5.980;2023-05-10T13:23:08;9.23;;;3.90;;
69573;SDS011;62840;52.366;5.980;2023-05-10T13:25:34;8.03;;;3.83;;
69573;SDS011;62840;52.366;5.980;2023-05-10T13:28:00;10.15;;;4.13;;
69573;SDS011;62840;52.366;5.980;2023-05-10T13:30:26;8.30;;;3.80;;
69573;SDS011;62840;52.366;5.980;2023-05-10T13:32:52;10.20;;;4.00;;
69573;SDS011;62840;52.366;5.980;2023-05-10T13:35:18;7.70;;;4.13;;
69573;SDS011;62840;52.366;5.980;2023-05-10T13:37:46;10.57;;;4.50;;
69573;SDS011;62840;52.366;5.980;2023-05-10T13:40:12;8.38;;;3.80;;
69573;SDS011;62840;52.366;5.980;2023-05-10T13:42:38;12.50;;;4.20;;
69573;SDS011;62840;52.366;5.980;2023-05-10T13:45:04;9.57;;;4.17;;
69573;SDS011;62840;52.366;5.980;2023-05-10T13:47:31;8.93;;;3.88;;
69573;SDS011;62840;52.366;5.980;2023-05-10T13:49:57;9.18;;;3.83;;
69573;SDS011;62840;52.366;5.980;2023-05-10T13:52:23;10.23;;;4.23;;
69573;SDS011;62840;52.366;5.980;2023-05-10T13:54:51;10.15;;;5.05;;
69573;SDS011;62840;52.366;5.980;2023-05-10T13:57:17;8.82;;;4.40;;
69573;SDS011;62840;52.366;5.980;2023-05-10T13:59:43;8.53;;;4.30;;
69573;SDS011;62840;52.366;5.980;2023-05-10T14:02:08;8.95;;;4.28;;
69573;SDS011;62840;52.366;5.980;2023-05-10T14:04:34;8.17;;;4.20;;
69573;SDS011;62840;52.366;5.980;2023-05-10T14:07:00;9.43;;;3.85;;
69573;SDS011;62840;52.366;5.980;2023-05-10T14:09:26;8.17;;;4.23;;
69573;SDS011;62840;52.366;5.980;2023-05-10T14:11:54;8.32;;;4.03;;
69573;SDS011;62840;52.366;5.980;2023-05-10T14:14:20;10.38;;;4.13;;
69573;SDS011;62840;52.366;5.980;2023-05-10T14:16:45;9.17;;;4.07;;
69573;SDS011;62840;52.366;5.980;2023-05-10T14:19:11;11.07;;;3.85;;
69573;SDS011;62840;52.366;5.980;2023-05-10T14:21:37;7.30;;;3.57;;
69573;SDS011;62840;52.366;5.980;2023-05-10T14:24:03;7.95;;;4.28;;
69573;SDS011;62840;52.366;5.980;2023-05-10T14:26:30;8.82;;;3.58;;
69573;SDS011;62840;52.366;5.980;2023-05-10T14:28:58;7.10;;;3.80;;
69573;SDS011;62840;52.366;5.980;2023-05-10T14:31:24;7.32;;;3.90;;
69573;SDS011;62840;52.366;5.980;2023-05-10T14:33:49;6.97;;;3.60;;
69573;SDS011;62840;52.366;5.980;2023-05-10T14:36:15;6.17;;;3.00;;
69573;SDS011;62840;52.366;5.980;2023-05-10T14:38:43;6.93;;;2.80;;
69573;SDS011;62840;52.366;5.980;2023-05-10T14:41:08;6.85;;;2.90;;
69573;SDS011;62840;52.366;5.980;2023-05-10T14:43:34;8.17;;;2.77;;
69573;SDS011;62840;52.366;5.980;2023-05-10T14:46:02;5.97;;;2.78;;
69573;SDS011;62840;52.366;5.980;2023-05-10T14:48:28;6.60;;;3.70;;